createdAt,value
2022-09-03T00:00:01.035Z,54.72
2022-09-03T00:02:43.916Z,54.56
2022-09-03T00:05:23.443Z,54.80
2022-09-03T00:08:04.092Z,54.68
2022-09-03T00:10:45.117Z,54.87
2022-09-03T00:13:27.660Z,55.06
2022-09-03T00:15:59.187Z,55.13
2022-09-03T00:18:35.143Z,55.17
2022-09-03T00:21:10.198Z,55.41
2022-09-03T00:23:44.656Z,55.36
2022-09-03T00:26:31.265Z,55.66
2022-09-03T00:29:11.051Z,55.73
2022-09-03T00:31:45.364Z,55.97
2022-09-03T00:34:27.160Z,56.15
2022-09-03T00:36:57.657Z,55.96
2022-09-03T00:39:30.891Z,56.16
2022-09-03T00:42:23.767Z,56.17
2022-09-03T00:45:21.642Z,55.95
2022-09-03T00:48:09.574Z,56.26
2022-09-03T00:50:52.494Z,56.46
2022-09-03T00:53:33.918Z,56.38
2022-09-03T00:56:16.270Z,56.40
2022-09-03T00:59:03.477Z,56.41
2022-09-03T01:01:44.006Z,56.50
2022-09-03T01:04:33.271Z,56.28
2022-09-03T01:07:14.431Z,56.40
2022-09-03T01:09:56.589Z,56.31
2022-09-03T01:12:39.979Z,56.31
2022-09-03T01:15:20.507Z,56.30
2022-09-03T01:18:09.026Z,56.61
2022-09-03T01:20:57.144Z,56.85
2022-09-03T01:23:56.457Z,56.97
2022-09-03T01:26:59.243Z,56.60
2022-09-03T01:29:39.722Z,56.88
2022-09-03T01:32:16.959Z,56.85
2022-09-03T01:34:59.148Z,56.97
2022-09-03T01:37:44.218Z,56.99
2022-09-03T01:40:27.370Z,57.23
2022-09-03T01:43:16.099Z,57.05
2022-09-03T01:46:00.322Z,57.21
2022-09-03T01:48:46.437Z,57.25
2022-09-03T01:51:26.506Z,57.28
2022-09-03T01:54:20.992Z,57.43
2022-09-03T01:57:35.600Z,57.44
2022-09-03T02:00:13.673Z,57.24
2022-09-03T02:02:51.598Z,57.15
2022-09-03T02:05:24.971Z,57.14
2022-09-03T02:08:01.356Z,57.20
2022-09-03T02:10:35.897Z,57.49
2022-09-03T02:13:11.335Z,57.43
2022-09-03T02:15:45.901Z,57.67
2022-09-03T02:18:23.596Z,57.71
2022-09-03T02:20:57.689Z,57.53
2022-09-03T02:23:32.834Z,57.49
2022-09-03T02:26:10.899Z,57.37
2022-09-03T02:28:50.979Z,57.48
2022-09-03T02:31:30.206Z,57.52
2022-09-03T02:34:11.401Z,57.72
2022-09-03T02:36:49.681Z,57.49
2022-09-03T02:39:25.078Z,57.59
2022-09-03T02:42:03.369Z,57.58
2022-09-03T02:44:37.652Z,57.99
2022-09-03T02:47:10.174Z,58.75
2022-09-03T02:49:43.021Z,59.22
2022-09-03T02:52:14.028Z,59.11
2022-09-03T02:54:45.743Z,59.30
2022-09-03T02:57:27.253Z,59.61
2022-09-03T02:59:58.047Z,58.97
2022-09-03T03:02:28.295Z,59.18
2022-09-03T03:05:01.790Z,59.15
2022-09-03T03:07:35.589Z,58.98
2022-09-03T03:10:05.794Z,58.76
2022-09-03T03:12:36.086Z,58.96
2022-09-03T03:15:06.761Z,59.27
2022-09-03T03:17:36.966Z,58.93
2022-09-03T03:20:12.093Z,59.08
2022-09-03T03:22:42.225Z,59.24
2022-09-03T03:25:13.078Z,59.21
2022-09-03T03:27:43.465Z,59.16
2022-09-03T03:30:15.666Z,59.27
2022-09-03T03:32:45.867Z,59.40
2022-09-03T03:35:18.851Z,59.47
2022-09-03T03:37:49.127Z,59.49
2022-09-03T03:40:20.320Z,59.07
2022-09-03T03:42:50.980Z,59.55
2022-09-03T03:45:21.182Z,60.24
2022-09-03T03:47:51.377Z,59.39
2022-09-03T03:50:24.286Z,59.96
2022-09-03T03:52:54.424Z,60.11
2022-09-03T03:55:24.575Z,60.37
2022-09-03T03:57:57.327Z,60.47
2022-09-03T04:00:27.476Z,61.32
2022-09-03T04:02:57.756Z,62.04
2022-09-03T04:05:33.593Z,61.59
2022-09-03T04:08:05.510Z,62.61
2022-09-03T04:10:35.824Z,61.76
2022-09-03T04:13:06.034Z,62.21
2022-09-03T04:15:37.181Z,62.52
2022-09-03T04:18:07.505Z,62.53
2022-09-03T04:20:40.497Z,62.82
2022-09-03T04:23:10.922Z,63.60
2022-09-03T04:25:41.967Z,63.42
2022-09-03T04:28:12.772Z,62.81
2022-09-03T04:30:42.961Z,62.50
2022-09-03T04:33:17.719Z,61.70
2022-09-03T04:35:50.502Z,61.45
2022-09-03T04:38:20.617Z,61.22
2022-09-03T04:40:55.636Z,61.07
2022-09-03T04:43:26.118Z,60.94
2022-09-03T04:46:01.241Z,60.99
2022-09-03T04:48:33.247Z,60.59
2022-09-03T04:51:13.494Z,61.03
2022-09-03T04:53:46.556Z,60.37
2022-09-03T04:56:18.334Z,61.32
2022-09-03T04:58:51.069Z,60.99
2022-09-03T05:01:24.511Z,60.38
2022-09-03T05:03:54.972Z,61.59
2022-09-03T05:06:28.136Z,61.25
2022-09-03T05:08:59.776Z,61.76
2022-09-03T05:11:31.456Z,62.34
2022-09-03T05:14:03.672Z,61.33
2022-09-03T05:16:33.868Z,62.10
2022-09-03T05:19:07.458Z,61.42
2022-09-03T05:21:40.466Z,62.06
2022-09-03T05:24:11.551Z,61.63
2022-09-03T05:26:42.880Z,60.69
2022-09-03T05:29:14.436Z,60.50
2022-09-03T05:31:44.720Z,58.63
2022-09-03T05:34:16.634Z,58.80
2022-09-03T05:36:53.220Z,59.60
2022-09-03T05:39:23.486Z,59.66
2022-09-03T05:41:53.801Z,58.81
2022-09-03T05:44:24.326Z,58.28
2022-09-03T05:46:54.908Z,59.33
2022-09-03T05:49:25.497Z,57.23
2022-09-03T05:51:58.220Z,58.93
2022-09-03T05:54:28.375Z,59.68
2022-09-03T05:56:58.586Z,58.73
2022-09-03T05:59:28.749Z,57.23
2022-09-03T06:02:00.314Z,56.65
2022-09-03T06:04:30.778Z,55.13
2022-09-03T06:07:03.653Z,55.02
2022-09-03T06:09:33.917Z,54.68
2022-09-03T06:12:04.589Z,53.94
2022-09-03T06:14:35.014Z,51.87
2022-09-03T06:17:05.232Z,51.49
2022-09-03T06:19:35.436Z,50.70
2022-09-03T06:22:08.299Z,49.87
2022-09-03T06:24:38.726Z,49.92
2022-09-03T06:27:08.985Z,50.10
2022-09-03T06:29:40.030Z,49.74
2022-09-03T06:32:10.458Z,48.70
2022-09-03T06:34:40.794Z,49.00
2022-09-03T06:37:16.513Z,48.71
2022-09-03T06:39:46.820Z,47.67
2022-09-03T06:42:17.611Z,47.33
2022-09-03T06:44:49.050Z,47.35
2022-09-03T06:47:19.200Z,47.22
2022-09-03T06:49:49.385Z,46.55
2022-09-03T06:52:22.425Z,46.43
2022-09-03T06:54:52.554Z,45.16
2022-09-03T06:57:22.925Z,44.78
2022-09-03T06:59:54.798Z,44.72
2022-09-03T07:02:25.146Z,44.44
2022-09-03T07:04:55.352Z,43.65
2022-09-03T07:07:28.151Z,43.37
2022-09-03T07:09:58.313Z,43.00
2022-09-03T07:12:28.603Z,42.08
2022-09-03T07:14:58.746Z,42.04
2022-09-03T07:17:30.471Z,42.07
2022-09-03T07:20:00.715Z,42.14
2022-09-03T07:22:33.517Z,40.88
2022-09-03T07:25:03.662Z,40.70
2022-09-03T07:27:33.778Z,39.84
2022-09-03T07:30:04.115Z,39.84
2022-09-03T07:32:34.308Z,39.53
2022-09-03T07:35:05.126Z,38.85
2022-09-03T07:37:38.569Z,38.55
2022-09-03T07:40:10.684Z,38.06
2022-09-03T07:42:41.554Z,38.00
2022-09-03T07:45:13.533Z,36.92
2022-09-03T07:47:51.646Z,36.17
2022-09-03T07:50:21.751Z,36.27
2022-09-03T07:53:00.392Z,36.14
2022-09-03T07:55:30.558Z,35.17
2022-09-03T07:58:00.722Z,34.88
2022-09-03T08:00:34.066Z,33.57
2022-09-03T08:03:08.495Z,32.11
2022-09-03T08:05:40.149Z,31.55
2022-09-03T08:08:15.560Z,30.79
2022-09-03T08:10:47.768Z,29.22
2022-09-03T08:13:17.948Z,28.13
2022-09-03T08:15:59.670Z,26.72
2022-09-03T08:18:35.535Z,25.87
2022-09-03T08:21:06.482Z,24.39
2022-09-03T08:23:40.854Z,24.03
2022-09-03T08:26:12.327Z,22.85
2022-09-03T08:28:43.198Z,22.80
2022-09-03T08:31:16.946Z,23.06
2022-09-03T08:33:50.777Z,22.52
2022-09-03T08:36:22.982Z,22.87
2022-09-03T08:38:57.735Z,24.59
2022-09-03T08:41:44.581Z,23.40
2022-09-03T08:44:28.070Z,22.21
2022-09-03T08:47:05.223Z,22.05
2022-09-03T08:49:43.246Z,21.76
2022-09-03T08:52:29.024Z,21.25
2022-09-03T08:55:16.359Z,21.42
2022-09-03T08:57:52.257Z,20.84
2022-09-03T09:00:23.010Z,20.62
2022-09-03T09:03:11.013Z,20.54
2022-09-03T09:05:54.999Z,20.57
2022-09-03T09:08:35.854Z,20.46
2022-09-03T09:11:22.437Z,20.43
2022-09-03T09:14:01.242Z,20.61
2022-09-03T09:16:42.556Z,20.88
2022-09-03T09:19:34.742Z,20.50
2022-09-03T09:22:08.333Z,20.42
2022-09-03T09:24:44.659Z,19.96
2022-09-03T09:27:19.627Z,19.86
2022-09-03T09:29:53.287Z,19.82
2022-09-03T09:32:23.845Z,20.16
2022-09-03T09:34:54.618Z,20.03
2022-09-03T09:37:24.880Z,19.43
2022-09-03T09:40:00.736Z,19.87
2022-09-03T09:42:33.774Z,19.83
2022-09-03T09:45:13.929Z,19.01
2022-09-03T09:47:44.958Z,19.35
2022-09-03T09:50:25.051Z,19.57
2022-09-03T09:53:08.753Z,20.17
2022-09-03T09:55:39.235Z,20.50
2022-09-03T09:58:14.627Z,19.75
2022-09-03T10:00:45.031Z,19.99
2022-09-03T10:03:17.187Z,19.43
2022-09-03T10:06:01.262Z,19.24
2022-09-03T10:08:31.441Z,19.67
2022-09-03T10:11:01.598Z,19.34
2022-09-03T10:13:43.052Z,19.11
2022-09-03T10:16:27.619Z,19.91
2022-09-03T10:19:09.820Z,19.00
2022-09-03T10:21:48.720Z,19.75
2022-09-03T10:24:39.707Z,19.30
2022-09-03T10:27:14.937Z,19.22
2022-09-03T10:29:50.364Z,19.13
2022-09-03T10:32:47.683Z,18.99
2022-09-03T10:35:31.049Z,18.84
2022-09-03T10:38:13.669Z,19.14
2022-09-03T10:40:53.066Z,19.02
2022-09-03T10:43:52.135Z,19.15
2022-09-03T10:46:30.810Z,18.74
2022-09-03T10:49:24.088Z,18.76
2022-09-03T10:52:06.206Z,18.90
2022-09-03T10:54:52.182Z,17.63
2022-09-03T10:57:38.401Z,17.80
2022-09-03T11:00:13.086Z,18.54
2022-09-03T11:03:34.682Z,18.15
2022-09-03T11:06:11.767Z,17.88
2022-09-03T11:08:47.971Z,17.28
2022-09-03T11:11:26.707Z,17.39
2022-09-03T11:14:02.822Z,17.10
2022-09-03T11:16:37.040Z,16.52
2022-09-03T11:19:15.778Z,16.06
2022-09-03T11:21:46.762Z,16.50
2022-09-03T11:24:23.268Z,16.46
2022-09-03T11:27:02.221Z,16.29
2022-09-03T11:29:39.234Z,15.89
2022-09-03T11:32:13.957Z,15.96
2022-09-03T11:34:55.605Z,15.29
2022-09-03T11:37:28.308Z,14.92
2022-09-03T11:40:02.830Z,15.55
2022-09-03T11:42:37.864Z,14.67
2022-09-03T11:45:26.634Z,14.53
2022-09-03T11:47:57.123Z,14.65
2022-09-03T11:50:32.398Z,14.77
2022-09-03T11:53:13.107Z,14.33
2022-09-03T11:55:57.359Z,14.18
2022-09-03T11:58:30.066Z,14.67
2022-09-03T12:01:02.217Z,15.41
2022-09-03T12:03:45.698Z,15.53
2022-09-03T12:06:45.366Z,16.17
2022-09-03T12:09:58.044Z,15.35
2022-09-03T12:12:49.083Z,15.09
2022-09-03T12:15:56.450Z,15.35
2022-09-03T12:18:29.976Z,14.84
2022-09-03T12:21:09.294Z,14.57
2022-09-03T12:23:47.645Z,15.07
2022-09-03T12:26:21.111Z,15.04
2022-09-03T12:28:56.125Z,14.76
2022-09-03T12:31:30.107Z,15.43
2022-09-03T12:34:04.613Z,15.92
2022-09-03T12:36:42.455Z,15.28
2022-09-03T12:39:18.868Z,15.03
2022-09-03T12:42:03.929Z,14.87
2022-09-03T12:44:36.404Z,13.98
2022-09-03T12:50:07.765Z,13.84
2022-09-03T12:52:42.800Z,13.97
2022-09-03T12:55:31.239Z,13.95
2022-09-03T12:58:09.306Z,13.83
2022-09-03T13:00:49.442Z,14.36
2022-09-03T13:03:24.779Z,14.06
2022-09-03T13:05:58.636Z,13.97
2022-09-03T13:08:33.676Z,14.09
2022-09-03T13:11:08.687Z,13.84
2022-09-03T13:13:40.881Z,13.88
2022-09-03T13:16:48.415Z,14.21
2022-09-03T13:19:26.514Z,13.92
2022-09-03T13:22:09.965Z,13.61
2022-09-03T13:25:04.390Z,12.68
2022-09-03T13:27:48.443Z,13.20
2022-09-03T13:30:23.285Z,13.59
2022-09-03T13:33:02.052Z,13.40
2022-09-03T13:35:38.038Z,13.06
2022-09-03T13:38:27.472Z,13.31
2022-09-03T13:41:03.377Z,14.31
2022-09-03T13:43:45.000Z,14.93
2022-09-03T13:46:20.834Z,14.30
2022-09-03T13:49:06.336Z,14.27
2022-09-03T13:51:47.226Z,14.73
2022-09-03T13:54:47.749Z,14.32
2022-09-03T13:57:33.862Z,14.44
2022-09-03T14:00:12.823Z,14.96
2022-09-03T14:02:54.412Z,15.31
2022-09-03T14:05:50.206Z,15.18
2022-09-03T14:08:31.807Z,15.16
2022-09-03T14:11:16.454Z,14.48
2022-09-03T14:14:03.560Z,14.83
2022-09-03T14:16:44.471Z,15.02
2022-09-03T14:19:21.978Z,14.61
2022-09-03T14:21:59.735Z,14.61
2022-09-03T14:24:37.330Z,14.50
2022-09-03T14:27:08.180Z,14.96
2022-09-03T14:29:39.782Z,15.38
2022-09-03T14:32:48.747Z,15.42
2022-09-03T14:35:35.355Z,15.51
2022-09-03T14:38:36.052Z,15.16
2022-09-03T14:41:34.409Z,15.60
2022-09-03T14:44:29.669Z,15.85
2022-09-03T14:47:15.603Z,15.77
2022-09-03T14:50:15.326Z,15.75
2022-09-03T14:53:18.275Z,15.45
2022-09-03T14:56:20.618Z,15.46
2022-09-03T14:59:18.594Z,15.92
2022-09-03T15:01:57.099Z,16.06
2022-09-03T15:04:50.174Z,16.07
2022-09-03T15:07:36.018Z,16.11
2022-09-03T15:10:19.345Z,16.51
2022-09-03T15:12:55.494Z,16.69
2022-09-03T15:15:35.290Z,17.23
2022-09-03T15:18:18.057Z,17.00
2022-09-03T15:20:56.847Z,17.43
2022-09-03T15:23:52.180Z,17.53
2022-09-03T15:26:46.694Z,17.60
2022-09-03T15:29:52.379Z,18.13
2022-09-03T15:32:40.528Z,18.14
2022-09-03T15:35:14.021Z,18.34
2022-09-03T15:37:50.954Z,18.57
2022-09-03T15:40:34.643Z,18.75
2022-09-03T15:43:12.737Z,18.95
2022-09-03T15:45:57.762Z,19.20
2022-09-03T15:48:39.444Z,19.42
2022-09-03T15:51:20.307Z,20.41
2022-09-03T15:53:57.841Z,21.36
2022-09-03T15:56:38.716Z,21.88
2022-09-03T15:59:19.395Z,22.54
2022-09-03T16:01:58.198Z,23.05
2022-09-03T16:04:53.663Z,23.51
2022-09-03T16:07:29.715Z,24.71
2022-09-03T16:10:28.220Z,25.27
2022-09-03T16:13:09.696Z,25.79
2022-09-03T16:15:46.415Z,26.56
2022-09-03T16:18:30.318Z,27.57
2022-09-03T16:21:06.716Z,28.11
2022-09-03T16:23:45.858Z,29.09
2022-09-03T16:26:25.584Z,29.66
2022-09-03T16:29:03.731Z,30.19
2022-09-03T16:31:54.164Z,30.58
2022-09-03T16:34:32.317Z,31.12
2022-09-03T16:37:28.926Z,31.50
2022-09-03T16:40:15.848Z,32.10
2022-09-03T16:42:58.311Z,32.28
2022-09-03T16:45:38.808Z,32.61
2022-09-03T16:48:18.314Z,32.64
2022-09-03T16:51:16.123Z,33.25
2022-09-03T16:54:12.780Z,33.41
2022-09-03T16:57:12.309Z,33.78
2022-09-03T17:00:08.115Z,33.98
2022-09-03T17:03:26.060Z,34.43
2022-09-03T17:06:34.592Z,34.50
2022-09-03T17:09:22.128Z,34.79
2022-09-03T17:12:12.021Z,35.25
2022-09-03T17:15:01.383Z,35.43
2022-09-03T17:18:10.536Z,35.26
2022-09-03T17:20:52.985Z,35.65
2022-09-03T17:24:20.116Z,36.12
2022-09-03T17:27:03.945Z,36.22
2022-09-03T17:29:54.850Z,36.26
2022-09-03T17:32:41.980Z,36.16
2022-09-03T17:35:20.774Z,36.59
2022-09-03T17:38:08.093Z,36.76
2022-09-03T17:40:50.088Z,37.09
2022-09-03T17:43:30.814Z,37.23
2022-09-03T17:46:17.294Z,37.01
2022-09-03T17:48:54.436Z,37.33
2022-09-03T17:51:46.396Z,37.31
2022-09-03T17:54:27.539Z,37.56
2022-09-03T17:57:09.432Z,37.83
2022-09-03T17:59:49.969Z,38.37
2022-09-03T18:02:35.081Z,38.17
2022-09-03T18:05:21.478Z,38.85
2022-09-03T18:08:03.759Z,39.50
2022-09-03T18:10:48.043Z,39.91
2022-09-03T18:13:30.792Z,40.21
2022-09-03T18:16:09.731Z,40.90
2022-09-03T18:18:47.854Z,40.25
2022-09-03T18:21:37.558Z,40.46
2022-09-03T18:24:39.166Z,40.70
2022-09-03T18:27:29.439Z,40.59
2022-09-03T18:30:20.832Z,41.59
2022-09-03T18:33:03.569Z,40.96
2022-09-03T18:35:50.066Z,42.02
2022-09-03T18:38:41.240Z,42.04
2022-09-03T18:41:48.250Z,41.43
2022-09-03T18:44:45.190Z,41.21
2022-09-03T18:48:08.402Z,41.25
2022-09-03T18:51:02.188Z,42.47
2022-09-03T18:54:00.719Z,42.32
2022-09-03T18:56:55.959Z,43.23
2022-09-03T18:59:57.434Z,42.56
2022-09-03T19:02:52.102Z,42.29
2022-09-03T19:05:43.520Z,42.17
2022-09-03T19:08:33.576Z,42.63
2022-09-03T19:11:24.453Z,42.53
2022-09-03T19:14:13.271Z,43.02
2022-09-03T19:17:09.345Z,43.71
2022-09-03T19:20:12.133Z,44.50
2022-09-03T19:22:57.151Z,45.42
2022-09-03T19:25:42.169Z,44.03
2022-09-03T19:28:33.054Z,43.94
2022-09-03T19:31:46.822Z,43.79
2022-09-03T19:34:52.143Z,44.16
2022-09-03T19:37:39.064Z,44.32
2022-09-03T19:40:44.999Z,44.39
2022-09-03T19:43:39.771Z,44.06
2022-09-03T19:46:38.333Z,44.74
2022-09-03T19:49:35.174Z,45.68
2022-09-03T19:52:25.718Z,45.37
2022-09-03T19:55:11.143Z,44.52
2022-09-03T19:57:57.389Z,44.69
2022-09-03T20:00:40.034Z,44.31
2022-09-03T20:03:29.230Z,45.37
2022-09-03T20:06:11.856Z,44.90
2022-09-03T20:08:54.592Z,44.40
2022-09-03T20:11:27.782Z,45.31
2022-09-03T20:14:12.770Z,44.27
2022-09-03T20:17:09.321Z,44.64
2022-09-03T20:19:58.686Z,44.64
2022-09-03T20:22:34.490Z,44.52
2022-09-03T20:25:31.038Z,44.87
2022-09-03T20:28:14.709Z,45.05
2022-09-03T20:30:53.434Z,45.55
2022-09-03T20:33:47.262Z,45.14
2022-09-03T20:36:32.370Z,45.52
2022-09-03T20:39:28.042Z,46.41
2022-09-03T20:42:14.741Z,46.77
2022-09-03T20:44:58.472Z,45.87
2022-09-03T20:48:00.458Z,46.36
2022-09-03T20:50:44.152Z,46.86
2022-09-03T20:53:52.831Z,45.64
2022-09-03T20:56:31.693Z,46.23
2022-09-03T20:59:11.905Z,46.72
2022-09-03T21:01:55.734Z,48.41
2022-09-03T21:04:45.090Z,48.03
2022-09-03T21:07:25.012Z,49.24
2022-09-03T21:10:06.980Z,49.82
2022-09-03T21:12:47.299Z,48.54
2022-09-03T21:15:26.337Z,48.69
2022-09-03T21:18:08.222Z,49.85
2022-09-03T21:20:48.929Z,50.90
2022-09-03T21:23:25.881Z,50.78
2022-09-03T21:26:05.687Z,50.30
2022-09-03T21:28:42.077Z,50.55
2022-09-03T21:31:22.909Z,52.06
2022-09-03T21:34:10.638Z,50.71
2022-09-03T21:36:45.940Z,51.02
2022-09-03T21:39:23.069Z,49.22
2022-09-03T21:42:03.517Z,52.05
2022-09-03T21:44:55.892Z,50.86
2022-09-03T21:47:30.570Z,49.16
2022-09-03T21:50:16.329Z,50.12
2022-09-03T21:52:55.353Z,49.81
2022-09-03T21:55:37.350Z,50.89
2022-09-03T21:58:25.796Z,52.54
2022-09-03T22:01:04.539Z,53.24
2022-09-03T22:03:34.895Z,53.32
2022-09-03T22:06:11.197Z,52.38
2022-09-03T22:08:50.056Z,51.54
2022-09-03T22:11:29.616Z,50.82
2022-09-03T22:14:09.395Z,50.68
2022-09-03T22:16:48.252Z,50.62
2022-09-03T22:19:18.903Z,51.65
2022-09-03T22:21:59.767Z,52.74
2022-09-03T22:24:42.611Z,54.84
2022-09-03T22:27:22.762Z,54.72
2022-09-03T22:30:07.267Z,54.92
2022-09-03T22:32:56.282Z,55.92
2022-09-03T22:35:52.889Z,55.91
2022-09-03T22:39:02.338Z,55.94
2022-09-03T22:42:10.044Z,56.40
2022-09-03T22:45:18.322Z,56.30
2022-09-03T22:48:04.315Z,54.65
2022-09-03T22:50:42.904Z,54.67
2022-09-03T22:53:25.182Z,56.27
2022-09-03T22:56:03.847Z,56.78
2022-09-03T22:58:39.409Z,57.75
2022-09-03T23:01:20.573Z,57.63
2022-09-03T23:03:56.851Z,57.94
2022-09-03T23:06:35.211Z,56.54
2022-09-03T23:09:09.406Z,57.01
2022-09-03T23:11:45.217Z,57.42
2022-09-03T23:14:20.153Z,58.07
2022-09-03T23:16:58.040Z,58.08
2022-09-03T23:19:38.959Z,57.90
2022-09-03T23:22:13.491Z,58.10
2022-09-03T23:24:48.145Z,57.98
2022-09-03T23:27:23.594Z,57.63
2022-09-03T23:29:58.044Z,57.70
2022-09-03T23:32:33.720Z,57.53
2022-09-03T23:35:06.905Z,58.33
2022-09-03T23:37:56.639Z,58.13
2022-09-03T23:40:53.137Z,58.25
2022-09-03T23:43:59.580Z,58.70
2022-09-03T23:46:39.638Z,59.63
2022-09-03T23:49:29.952Z,59.24
2022-09-03T23:52:28.712Z,59.32
2022-09-03T23:55:12.145Z,59.29
2022-09-03T23:57:57.118Z,59.67
